Time;durP1;ratioP1;P1;durP2;ratioP2;P2;SDS_P1;SDS_P2;PMS_P1;PMS_P2;Temp;Humidity;BMP_temperature;BMP_pressure;BME280_temperature;BME280_humidity;BME280_pressure;Samples;Min_cycle;Max_cycle;Signal;HPM_P1;HPM_P2
2022/10/29 00:00:02;;;;;;;5.20;2.47;;;13.20;98.00;;;;;;5132102;28;20611;-66
2022/10/29 00:02:30;;;;;;;5.40;2.40;;;13.10;98.00;;;;;;5131976;28;20970;-66
2022/10/29 00:04:57;;;;;;;3.53;2.23;;;13.20;98.00;;;;;;5131948;28;20458;-67
2022/10/29 00:07:26;;;;;;;3.90;2.43;;;13.10;98.00;;;;;;5131944;28;20461;-66
2022/10/29 00:09:53;;;;;;;4.27;2.77;;;13.10;98.00;;;;;;5132038;28;20465;-67
2022/10/29 00:12:24;;;;;;;2.13;1.97;;;13.10;98.00;;;;;;5113822;28;20446;-67
2022/10/29 00:14:51;;;;;;;6.23;3.17;;;13.20;98.00;;;;;;5132062;28;20449;-67
2022/10/29 00:17:18;;;;;;;4.50;2.67;;;13.20;98.00;;;;;;5131733;28;20475;-66
2022/10/29 00:19:47;;;;;;;6.27;2.50;;;13.20;98.00;;;;;;5132209;28;20461;-67
2022/10/29 00:22:14;;;;;;;6.33;2.30;;;13.20;98.00;;;;;;5113987;28;20950;-67
2022/10/29 00:24:42;;;;;;;4.20;2.70;;;13.20;98.00;;;;;;5132052;27;20449;-67
2022/10/29 00:27:09;;;;;;;4.13;2.60;;;13.10;98.00;;;;;;5135824;27;20510;-66
2022/10/29 00:29:37;;;;;;;3.80;2.30;;;13.10;98.00;;;;;;5135813;27;20453;-66
2022/10/29 00:32:04;;;;;;;6.60;2.47;;;13.00;98.00;;;;;;5135864;27;20524;-68
2022/10/29 00:34:31;;;;;;;3.33;2.00;;;13.00;98.00;;;;;;5135754;27;20460;-67
2022/10/29 00:37:00;;;;;;;4.50;2.43;;;13.10;98.00;;;;;;5135902;27;20516;-66
2022/10/29 00:39:28;;;;;;;4.90;2.53;;;13.10;98.00;;;;;;5117754;27;20466;-66
2022/10/29 00:41:55;;;;;;;7.23;2.90;;;13.10;98.00;;;;;;5135799;27;20514;-67
2022/10/29 00:44:29;;;;;;;7.10;2.33;;;13.00;98.00;;;;;;5117324;27;20458;-67
2022/10/29 00:47:02;;;;;;;3.93;2.17;;;12.90;98.00;;;;;;5135664;27;20463;-68
2022/10/29 00:49:30;;;;;;;6.33;2.70;;;12.90;98.00;;;;;;5135583;27;20485;-68
2022/10/29 00:51:57;;;;;;;5.37;2.17;;;13.00;98.00;;;;;;5135476;27;20461;-68
2022/10/29 00:54:27;;;;;;;3.97;2.10;;;13.00;98.00;;;;;;5135444;27;20465;-69
2022/10/29 00:56:58;;;;;;;5.23;2.67;;;13.10;98.00;;;;;;5135365;27;20950;-68
2022/10/29 00:59:26;;;;;;;3.00;2.03;;;13.10;98.00;;;;;;5117493;27;20872;-68
2022/10/29 01:01:54;;;;;;;3.50;2.10;;;13.20;98.00;;;;;;5135100;27;20840;-68
2022/10/29 01:04:22;;;;;;;3.57;2.40;;;13.20;98.00;;;;;;5135232;27;20452;-68
2022/10/29 01:06:49;;;;;;;3.83;2.53;;;13.10;98.00;;;;;;5135088;27;20457;-69
2022/10/29 01:09:17;;;;;;;4.40;2.60;;;13.00;98.00;;;;;;5135137;27;20468;-69
2022/10/29 01:11:54;;;;;;;5.57;2.80;;;12.90;98.00;;;;;;5135073;27;20967;-69
2022/10/29 01:14:32;;;;;;;4.50;2.43;;;12.90;98.00;;;;;;5135094;27;20460;-68
2022/10/29 01:17:07;;;;;;;5.17;3.63;;;12.80;98.00;;;;;;5135046;27;20467;-68
2022/10/29 01:20:07;;;;;;;6.03;2.40;;;12.80;98.00;;;;;;5135061;27;20451;-68
2022/10/29 01:22:39;;;;;;;5.07;2.40;;;12.80;98.00;;;;;;5118376;27;20452;-68
2022/10/29 01:25:37;;;;;;;10.43;3.40;;;12.60;98.00;;;;;;5116359;27;20460;-69
2022/10/29 01:28:19;;;;;;;4.80;2.83;;;12.70;98.00;;;;;;5135044;27;20555;-68
2022/10/29 01:31:18;;;;;;;3.93;2.13;;;12.70;98.00;;;;;;5134919;27;20455;-68
2022/10/29 01:33:55;;;;;;;10.40;2.80;;;12.70;98.00;;;;;;5133107;27;20495;-68
2022/10/29 01:36:29;;;;;;;2.90;2.20;;;12.70;98.00;;;;;;5134478;27;20807;-69
2022/10/29 01:39:07;;;;;;;7.93;2.80;;;12.80;98.00;;;;;;5134549;27;20485;-69
2022/10/29 01:41:43;;;;;;;4.57;2.40;;;12.70;98.00;;;;;;5133869;27;20547;-68
2022/10/29 01:44:19;;;;;;;5.63;2.40;;;12.80;98.00;;;;;;5134429;27;20953;-69
2022/10/29 01:46:52;;;;;;;3.53;2.40;;;12.50;98.00;;;;;;5134390;27;20468;-68
2022/10/29 01:49:27;;;;;;;4.17;2.50;;;12.50;98.00;;;;;;5134306;27;20445;-68
2022/10/29 01:51:55;;;;;;;5.87;2.83;;;12.40;98.00;;;;;;5134188;27;20493;-68
2022/10/29 01:54:23;;;;;;;5.40;2.63;;;12.30;98.00;;;;;;5134044;27;20470;-68
2022/10/29 01:56:54;;;;;;;5.40;3.13;;;12.40;98.00;;;;;;5134312;27;20962;-68
2022/10/29 01:59:23;;;;;;;4.40;2.40;;;12.50;98.00;;;;;;5115928;27;20496;-69
2022/10/29 02:02:01;;;;;;;5.10;2.47;;;12.50;98.00;;;;;;5134099;27;20460;-68
2022/10/29 02:04:54;;;;;;;3.90;2.07;;;12.50;98.00;;;;;;5134159;27;20465;-68
2022/10/29 02:07:34;;;;;;;3.77;2.17;;;12.50;98.00;;;;;;5133969;27;20562;-69
2022/10/29 02:10:10;;;;;;;8.40;2.80;;;12.50;98.00;;;;;;5115482;27;20950;-68
2022/10/29 02:12:46;;;;;;;5.23;2.40;;;12.50;98.00;;;;;;5133966;27;20620;-68
2022/10/29 02:15:17;;;;;;;4.13;2.33;;;12.50;98.00;;;;;;5116263;27;20448;-68
2022/10/29 02:17:45;;;;;;;6.47;2.27;;;12.50;98.00;;;;;;5133832;27;20487;-68
2022/10/29 02:20:15;;;;;;;4.93;2.10;;;12.60;98.00;;;;;;5115383;27;20515;-68
2022/10/29 02:22:42;;;;;;;2.47;1.90;;;12.50;98.00;;;;;;5134047;27;20451;-69
2022/10/29 02:25:11;;;;;;;5.40;2.63;;;12.60;98.00;;;;;;5133690;27;20454;-68
2022/10/29 02:27:38;;;;;;;1.80;1.67;;;12.60;98.00;;;;;;5133763;27;20967;-69
2022/10/29 02:30:06;;;;;;;2.43;2.10;;;12.60;98.00;;;;;;5133551;27;20454;-69
2022/10/29 02:32:33;;;;;;;7.57;3.03;;;12.60;98.00;;;;;;5133504;27;20479;-68
2022/10/29 02:35:01;;;;;;;3.63;2.40;;;12.70;98.00;;;;;;5133456;27;20454;-68
2022/10/29 02:37:29;;;;;;;5.70;3.30;;;12.70;98.00;;;;;;5133337;27;20454;-68
2022/10/29 02:39:56;;;;;;;5.13;2.57;;;12.50;98.00;;;;;;5133254;27;20534;-68
2022/10/29 02:42:24;;;;;;;5.90;2.57;;;12.40;98.00;;;;;;5133322;27;20462;-68
2022/10/29 02:44:51;;;;;;;3.20;2.20;;;12.20;98.00;;;;;;5133270;27;20851;-68
2022/10/29 02:47:18;;;;;;;6.40;1.90;;;12.30;98.00;;;;;;5132714;27;20456;-69
2022/10/29 02:49:45;;;;;;;2.60;2.00;;;12.30;98.00;;;;;;5114592;27;20451;-68
2022/10/29 02:52:12;;;;;;;20.07;2.23;;;12.40;98.00;;;;;;5133162;27;20454;-68
2022/10/29 02:54:41;;;;;;;3.97;2.40;;;12.50;98.00;;;;;;5132995;27;20472;-68
2022/10/29 02:57:09;;;;;;;4.77;2.80;;;12.50;98.00;;;;;;5132976;27;20859;-69
2022/10/29 02:59:36;;;;;;;4.33;2.30;;;12.50;98.00;;;;;;5132871;27;20483;-69
2022/10/29 03:02:03;;;;;;;4.07;2.10;;;12.50;98.00;;;;;;5132841;27;20456;-68
2022/10/29 03:04:30;;;;;;;3.53;2.37;;;12.50;98.00;;;;;;5114526;27;20791;-68
2022/10/29 03:06:58;;;;;;;4.17;2.70;;;12.60;98.00;;;;;;5132896;27;20453;-68
2022/10/29 03:09:25;;;;;;;7.87;2.70;;;12.60;98.00;;;;;;5132712;27;20938;-68
2022/10/29 03:11:53;;;;;;;4.63;2.20;;;12.60;98.00;;;;;;5114362;27;20453;-69
2022/10/29 03:14:23;;;;;;;3.00;2.20;;;12.70;98.00;;;;;;5132853;27;20875;-69
2022/10/29 03:16:50;;;;;;;3.67;2.23;;;12.70;98.00;;;;;;5114508;27;20515;-68
2022/10/29 03:19:17;;;;;;;5.50;3.50;;;12.60;98.00;;;;;;5132565;27;20529;-68
2022/10/29 03:21:44;;;;;;;3.80;2.23;;;12.50;98.00;;;;;;5132627;27;20454;-69
2022/10/29 03:24:11;;;;;;;3.73;2.23;;;12.60;98.00;;;;;;5132612;27;20457;-68
2022/10/29 03:26:39;;;;;;;4.73;2.53;;;12.60;98.00;;;;;;5132579;27;20448;-69
2022/10/29 03:29:07;;;;;;;5.23;2.93;;;12.60;98.00;;;;;;5132470;27;20691;-70
2022/10/29 03:31:37;;;;;;;6.73;1.93;;;12.60;98.00;;;;;;5132342;27;20456;-69
2022/10/29 03:34:04;;;;;;;3.37;2.07;;;12.60;98.00;;;;;;5132538;27;20467;-69
2022/10/29 03:36:31;;;;;;;5.10;2.00;;;12.60;98.00;;;;;;5132313;27;20509;-68
2022/10/29 03:38:58;;;;;;;7.80;1.73;;;12.70;98.00;;;;;;5132614;27;20483;-68
2022/10/29 03:41:25;;;;;;;4.73;2.13;;;12.80;98.00;;;;;;5132167;27;20445;-68
2022/10/29 03:43:53;;;;;;;3.57;2.33;;;12.90;98.00;;;;;;5132315;27;20456;-68
2022/10/29 03:46:21;;;;;;;3.37;2.27;;;12.80;98.00;;;;;;5132098;27;20456;-68
2022/10/29 03:48:50;;;;;;;4.07;2.57;;;12.80;98.00;;;;;;5132347;28;20503;-68
2022/10/29 03:51:17;;;;;;;3.80;2.63;;;12.80;98.00;;;;;;5132248;28;20563;-68
2022/10/29 03:53:44;;;;;;;3.60;2.00;;;12.70;98.00;;;;;;5132084;28;20487;-69
2022/10/29 03:56:11;;;;;;;2.43;1.97;;;12.60;98.00;;;;;;5132294;28;20965;-68
2022/10/29 03:58:38;;;;;;;2.93;1.97;;;12.50;98.00;;;;;;5132207;27;20475;-68
2022/10/29 04:01:09;;;;;;;2.23;1.77;;;12.50;98.00;;;;;;5136360;27;20955;-69
2022/10/29 04:03:41;;;;;;;3.77;2.27;;;12.50;98.00;;;;;;5136497;27;20453;-68
2022/10/29 04:06:13;;;;;;;6.97;2.50;;;12.50;98.00;;;;;;5136710;27;20490;-68
2022/10/29 04:08:40;;;;;;;3.00;1.97;;;12.60;98.00;;;;;;5136638;27;20506;-68
2022/10/29 04:11:10;;;;;;;5.60;2.53;;;12.70;98.00;;;;;;5136258;27;20456;-68
2022/10/29 04:13:37;;;;;;;3.87;2.40;;;12.70;98.00;;;;;;5118131;27;20508;-69
2022/10/29 04:16:05;;;;;;;2.70;2.20;;;12.80;98.00;;;;;;5136146;27;20456;-69
2022/10/29 04:18:32;;;;;;;2.97;2.00;;;12.90;98.00;;;;;;5136291;27;20481;-69
2022/10/29 04:21:01;;;;;;;3.20;2.03;;;12.90;98.00;;;;;;5118031;27;20452;-69
2022/10/29 04:23:29;;;;;;;4.17;2.57;;;13.00;98.00;;;;;;5136180;27;20463;-69
2022/10/29 04:25:57;;;;;;;2.60;2.13;;;13.00;98.00;;;;;;5136011;27;20462;-69
2022/10/29 04:28:24;;;;;;;5.60;2.53;;;12.80;98.00;;;;;;5135879;27;20854;-68
2022/10/29 04:30:52;;;;;;;3.30;2.00;;;12.80;98.00;;;;;;5135983;27;20993;-68
2022/10/29 04:33:19;;;;;;;4.57;2.50;;;12.90;98.00;;;;;;5135973;27;20450;-68
2022/10/29 04:35:52;;;;;;;3.10;2.40;;;13.20;98.00;;;;;;5135760;27;20452;-68
2022/10/29 04:38:22;;;;;;;6.47;2.43;;;13.10;98.00;;;;;;5135780;27;20559;-68
2022/10/29 04:40:49;;;;;;;2.30;2.10;;;13.00;98.00;;;;;;5135792;27;20456;-68
2022/10/29 04:43:17;;;;;;;8.87;2.17;;;12.90;98.00;;;;;;5135766;27;20459;-69
2022/10/29 04:45:44;;;;;;;2.30;2.17;;;12.90;98.00;;;;;;5135670;27;20447;-68
2022/10/29 04:48:11;;;;;;;2.50;2.10;;;12.80;98.00;;;;;;5135510;27;20462;-68
2022/10/29 04:50:39;;;;;;;5.00;2.20;;;12.70;98.00;;;;;;5135723;27;20461;-68
2022/10/29 04:53:07;;;;;;;2.57;2.00;;;12.80;98.00;;;;;;5135212;27;20462;-68
2022/10/29 04:55:38;;;;;;;4.07;2.37;;;12.80;98.00;;;;;;5135650;27;20546;-69
2022/10/29 04:58:06;;;;;;;10.40;2.27;;;12.90;98.00;;;;;;5135907;27;20492;-68
2022/10/29 05:00:34;;;;;;;5.10;2.70;;;13.00;98.00;;;;;;5135273;27;20553;-68
2022/10/29 05:03:01;;;;;;;4.80;2.80;;;12.90;98.00;;;;;;5117441;27;20442;-69
2022/10/29 05:05:28;;;;;;;5.00;2.43;;;12.90;98.00;;;;;;5135117;27;20468;-68
2022/10/29 05:07:59;;;;;;;4.97;2.33;;;13.00;98.00;;;;;;5135165;27;20853;-68
2022/10/29 05:10:27;;;;;;;4.23;2.20;;;12.80;98.00;;;;;;5134432;27;20456;-68
2022/10/29 05:13:00;;;;;;;3.23;2.40;;;12.90;98.00;;;;;;5134841;27;20475;-69
2022/10/29 05:15:28;;;;;;;4.03;2.57;;;13.00;98.00;;;;;;5134901;27;20454;-68
2022/10/29 05:17:56;;;;;;;7.23;3.07;;;13.00;98.00;;;;;;5134841;27;20451;-68
2022/10/29 05:20:24;;;;;;;4.20;2.47;;;12.90;98.00;;;;;;5134754;27;20484;-69
2022/10/29 05:22:58;;;;;;;6.07;3.27;;;12.80;98.00;;;;;;5116644;27;20451;-68
2022/10/29 05:25:26;;;;;;;5.77;2.50;;;12.70;98.00;;;;;;5134780;27;20460;-69
2022/10/29 05:28:02;;;;;;;4.93;2.70;;;12.60;98.00;;;;;;5116505;27;20465;-68
2022/10/29 05:30:29;;;;;;;9.60;2.73;;;12.40;98.00;;;;;;5134607;27;20507;-68
2022/10/29 05:32:56;;;;;;;4.20;2.30;;;12.40;98.00;;;;;;5134898;27;20450;-68
2022/10/29 05:35:23;;;;;;;5.20;3.30;;;12.60;98.00;;;;;;5134775;27;20455;-69
2022/10/29 05:37:53;;;;;;;5.13;2.30;;;12.50;98.00;;;;;;5134717;27;20456;-69
2022/10/29 05:40:20;;;;;;;7.20;2.83;;;12.40;98.00;;;;;;5134102;27;20480;-69
2022/10/29 05:42:50;;;;;;;3.40;2.40;;;12.50;98.00;;;;;;5134298;27;20496;-68
2022/10/29 05:45:18;;;;;;;5.00;2.53;;;12.30;98.00;;;;;;5134411;27;20452;-68
2022/10/29 05:47:45;;;;;;;6.53;2.70;;;12.20;98.00;;;;;;5134478;27;20847;-69
2022/10/29 05:50:12;;;;;;;4.57;2.40;;;12.10;98.00;;;;;;5134324;27;20456;-68
2022/10/29 05:52:40;;;;;;;4.20;2.33;;;12.10;98.00;;;;;;5134299;27;20459;-69
2022/10/29 05:55:08;;;;;;;4.90;2.67;;;12.00;98.00;;;;;;5116510;27;20944;-68
2022/10/29 05:57:35;;;;;;;3.23;2.07;;;12.10;98.00;;;;;;5115999;27;20455;-68
2022/10/29 06:00:03;;;;;;;3.20;2.20;;;12.00;98.00;;;;;;5134304;27;20480;-68
2022/10/29 06:02:32;;;;;;;6.00;2.50;;;11.90;98.00;;;;;;5133963;27;20546;-69
2022/10/29 06:04:59;;;;;;;2.57;2.13;;;11.80;98.00;;;;;;5134178;27;20459;-69
2022/10/29 06:07:26;;;;;;;10.63;2.87;;;11.80;98.00;;;;;;5134270;27;20446;-68
2022/10/29 06:09:53;;;;;;;2.67;2.50;;;11.80;98.00;;;;;;5133991;27;20868;-69
2022/10/29 06:12:20;;;;;;;9.80;3.20;;;11.80;98.00;;;;;;5133957;27;20451;-68
2022/10/29 06:14:47;;;;;;;3.73;2.67;;;11.70;98.00;;;;;;5134038;27;20455;-68
2022/10/29 06:17:14;;;;;;;5.17;2.37;;;11.70;98.00;;;;;;5133742;27;20472;-68
2022/10/29 06:19:43;;;;;;;3.13;2.13;;;11.80;98.00;;;;;;5133698;27;20909;-68
2022/10/29 06:22:10;;;;;;;5.80;2.20;;;11.70;98.00;;;;;;5133292;27;20460;-68
2022/10/29 06:24:37;;;;;;;4.43;2.60;;;11.80;98.00;;;;;;5133091;27;20950;-68
2022/10/29 06:27:04;;;;;;;4.17;2.50;;;11.90;98.00;;;;;;5133593;27;20448;-69
2022/10/29 06:29:31;;;;;;;4.13;2.60;;;12.00;98.00;;;;;;5133712;27;20463;-69
2022/10/29 06:31:58;;;;;;;4.13;2.50;;;11.90;98.00;;;;;;5115299;27;20456;-68
2022/10/29 06:34:25;;;;;;;3.53;2.70;;;11.90;98.00;;;;;;5115209;27;20459;-67
2022/10/29 06:36:55;;;;;;;3.50;2.37;;;11.80;98.00;;;;;;5133349;27;20952;-68
2022/10/29 06:39:22;;;;;;;4.57;1.97;;;11.80;98.00;;;;;;5133162;27;20488;-68
2022/10/29 06:41:49;;;;;;;2.27;1.80;;;11.80;98.00;;;;;;5133347;27;20479;-67
2022/10/29 06:44:16;;;;;;;3.30;2.00;;;11.90;98.00;;;;;;5133533;27;20453;-68
2022/10/29 06:46:43;;;;;;;4.20;2.10;;;12.00;98.00;;;;;;5134253;27;20918;-67
2022/10/29 06:49:11;;;;;;;4.50;2.27;;;11.90;98.00;;;;;;5133934;27;20450;-68
2022/10/29 06:51:38;;;;;;;3.90;2.20;;;11.90;98.00;;;;;;5149793;27;20508;-67
2022/10/29 06:54:06;;;;;;;6.80;2.53;;;11.90;98.00;;;;;;5133764;27;20472;-68
2022/10/29 06:56:33;;;;;;;5.47;2.73;;;11.90;98.00;;;;;;5133631;27;20484;-67
2022/10/29 06:59:00;;;;;;;5.73;2.97;;;11.90;98.00;;;;;;5133931;27;20841;-68
2022/10/29 07:01:29;;;;;;;2.90;2.17;;;12.00;98.00;;;;;;5133581;27;20444;-67
2022/10/29 07:03:56;;;;;;;3.70;1.80;;;12.00;98.00;;;;;;5115495;27;20448;-67
2022/10/29 07:06:23;;;;;;;5.17;2.60;;;12.10;98.00;;;;;;5133433;27;20456;-67
2022/10/29 07:08:50;;;;;;;3.33;2.53;;;12.10;98.00;;;;;;5132400;27;20461;-67
2022/10/29 07:11:19;;;;;;;5.57;2.33;;;12.10;98.00;;;;;;5133251;27;20456;-67
2022/10/29 07:13:46;;;;;;;2.40;1.83;;;12.20;98.00;;;;;;5133351;27;20459;-68
2022/10/29 07:16:13;;;;;;;3.83;2.00;;;12.20;98.00;;;;;;5133331;27;20479;-68
2022/10/29 07:18:43;;;;;;;5.17;2.77;;;12.20;98.00;;;;;;5133473;27;20505;-67
2022/10/29 07:21:10;;;;;;;4.70;2.70;;;12.20;98.00;;;;;;5133264;27;20575;-68
2022/10/29 07:23:37;;;;;;;7.30;2.67;;;12.30;98.00;;;;;;5133345;27;20457;-67
2022/10/29 07:26:04;;;;;;;6.10;3.00;;;12.30;98.00;;;;;;5132463;27;20461;-67
2022/10/29 07:28:32;;;;;;;6.63;3.47;;;12.30;98.00;;;;;;5133246;27;20454;-67
2022/10/29 07:31:00;;;;;;;4.60;2.70;;;12.30;98.00;;;;;;5133295;27;20461;-67
2022/10/29 07:33:29;;;;;;;4.07;3.03;;;12.40;98.00;;;;;;5115161;27;20464;-67
2022/10/29 07:35:57;;;;;;;6.63;2.57;;;12.40;98.00;;;;;;5133191;27;20485;-67
2022/10/29 07:38:25;;;;;;;6.53;2.80;;;12.50;98.00;;;;;;5133305;27;20517;-68
2022/10/29 07:40:52;;;;;;;3.50;2.10;;;12.60;98.00;;;;;;5132846;27;20480;-67
2022/10/29 07:43:20;;;;;;;3.57;2.37;;;12.70;98.00;;;;;;5132890;27;20480;-68
2022/10/29 07:45:50;;;;;;;5.53;3.27;;;12.70;98.00;;;;;;5132097;27;20955;-68
2022/10/29 07:48:18;;;;;;;3.87;2.03;;;12.80;98.00;;;;;;5132995;28;20865;-65
2022/10/29 07:50:45;;;;;;;3.07;2.10;;;13.30;98.00;;;;;;5132766;28;20939;-66
2022/10/29 07:53:12;;;;;;;3.90;1.70;;;14.00;98.00;;;;;;5132824;28;20460;-66
2022/10/29 07:55:41;;;;;;;7.80;2.93;;;14.60;98.00;;;;;;5132742;28;20802;-65
2022/10/29 07:58:12;;;;;;;4.50;2.50;;;15.10;98.00;;;;;;5131944;28;20527;-66
2022/10/29 08:00:40;;;;;;;4.10;2.40;;;15.50;98.00;;;;;;5132621;28;20482;-65
2022/10/29 08:03:11;;;;;;;7.57;3.50;;;15.40;98.00;;;;;;5132770;27;20887;-65
2022/10/29 08:05:38;;;;;;;6.80;3.50;;;15.40;98.00;;;;;;5132851;27;20456;-64
2022/10/29 08:08:06;;;;;;;4.90;2.90;;;15.20;98.00;;;;;;5131637;28;20453;-66
2022/10/29 08:10:35;;;;;;;3.93;2.53;;;15.10;98.00;;;;;;5132655;28;20461;-64
2022/10/29 08:13:04;;;;;;;4.13;2.83;;;15.00;98.00;;;;;;5132706;28;20466;-64
2022/10/29 08:15:33;;;;;;;5.57;3.20;;;14.90;98.00;;;;;;5131421;28;20484;-66
2022/10/29 08:18:02;;;;;;;5.20;2.93;;;14.80;98.00;;;;;;5132769;28;20458;-64
2022/10/29 08:20:31;;;;;;;5.60;2.50;;;14.80;98.00;;;;;;5131328;28;20816;-63
2022/10/29 08:23:01;;;;;;;3.93;2.53;;;14.90;98.00;;;;;;5132714;28;20455;-64
2022/10/29 08:25:28;;;;;;;12.70;3.00;;;15.00;98.00;;;;;;5131471;28;20821;-64
2022/10/29 08:28:00;;;;;;;4.80;2.90;;;15.20;98.00;;;;;;5132959;28;20964;-64
2022/10/29 08:30:27;;;;;;;5.10;2.70;;;15.30;98.00;;;;;;5132778;28;21043;-64
2022/10/29 08:32:54;;;;;;;4.20;2.80;;;15.40;98.00;;;;;;5132550;28;20450;-63
2022/10/29 08:35:21;;;;;;;5.40;3.10;;;15.70;98.00;;;;;;5132686;27;20457;-63
2022/10/29 08:37:50;;;;;;;7.40;2.93;;;15.80;98.00;;;;;;5131142;28;21071;-63
2022/10/29 08:40:30;;;;;;;3.80;2.10;;;15.80;98.00;;;;;;5132415;27;20819;-67
2022/10/29 08:43:31;;;;;;;5.67;3.07;;;16.00;98.00;;;;;;5132419;27;20494;-66
2022/10/29 08:45:58;;;;;;;7.90;2.83;;;16.20;98.00;;;;;;5133181;27;20951;-64
2022/10/29 08:48:35;;;;;;;6.23;3.50;;;16.50;98.00;;;;;;5136255;27;20862;-63
2022/10/29 08:51:09;;;;;;;7.17;3.10;;;16.70;98.00;;;;;;5136606;27;20449;-65
2022/10/29 08:53:42;;;;;;;3.77;2.80;;;16.80;98.00;;;;;;5136019;27;20457;-66
2022/10/29 08:56:16;;;;;;;4.53;2.53;;;16.80;98.00;;;;;;5136124;27;20549;-66
2022/10/29 08:58:50;;;;;;;8.97;3.60;;;16.80;98.00;;;;;;5135962;27;20958;-63
2022/10/29 09:01:20;;;;;;;3.80;2.63;;;16.90;98.00;;;;;;5134524;27;20561;-64
2022/10/29 09:03:49;;;;;;;5.70;3.17;;;16.90;98.00;;;;;;5135334;27;20948;-64
2022/10/29 09:06:24;;;;;;;5.23;3.10;;;16.90;98.00;;;;;;5133829;27;20471;-64
2022/10/29 09:09:03;;;;;;;6.50;3.20;;;17.00;98.00;;;;;;5135309;27;20452;-64
2022/10/29 09:12:02;;;;;;;8.90;3.40;;;17.10;98.00;;;;;;5133403;27;20794;-63
2022/10/29 09:14:53;;;;;;;5.10;3.07;;;17.20;98.00;;;;;;5135066;27;20458;-63
2022/10/29 09:17:28;;;;;;;5.70;2.87;;;17.30;98.00;;;;;;5135607;27;20956;-64
2022/10/29 09:20:08;;;;;;;5.43;3.37;;;17.30;98.00;;;;;;5135247;27;20454;-64
2022/10/29 09:22:44;;;;;;;7.63;3.50;;;17.40;98.00;;;;;;5135294;27;20861;-63
2022/10/29 09:25:18;;;;;;;6.20;3.40;;;17.40;98.00;;;;;;5135112;27;20968;-64
2022/10/29 09:27:58;;;;;;;6.77;3.07;;;17.40;98.00;;;;;;5135248;27;20465;-64
2022/10/29 09:30:29;;;;;;;6.47;3.37;;;17.50;98.00;;;;;;5135130;27;20450;-64
2022/10/29 09:33:00;;;;;;;7.50;3.93;;;17.70;98.00;;;;;;5134906;27;20477;-64
2022/10/29 09:35:37;;;;;;;10.27;3.43;;;17.70;98.00;;;;;;5134571;27;20462;-64
2022/10/29 09:38:12;;;;;;;5.23;3.07;;;17.70;98.00;;;;;;5134901;27;20784;-64
2022/10/29 09:40:42;;;;;;;6.10;3.30;;;17.90;98.00;;;;;;5134597;27;20485;-64
2022/10/29 09:43:24;;;;;;;6.07;3.20;;;17.90;98.00;;;;;;5134563;27;20989;-63
2022/10/29 09:45:58;;;;;;;5.07;3.10;;;18.00;98.00;;;;;;5116434;27;20462;-64
2022/10/29 09:48:32;;;;;;;4.77;2.87;;;18.20;98.00;;;;;;5134386;27;20445;-64
2022/10/29 09:51:10;;;;;;;5.33;3.30;;;18.30;98.00;;;;;;5134437;27;20503;-64
2022/10/29 09:53:37;;;;;;;7.77;3.60;;;18.30;98.00;;;;;;5134178;27;20466;-64
2022/10/29 09:56:08;;;;;;;6.40;3.60;;;18.40;98.00;;;;;;5133108;27;20473;-64
2022/10/29 09:58:38;;;;;;;9.50;3.80;;;18.40;98.00;;;;;;5132641;27;20458;-64
2022/10/29 10:01:06;;;;;;;5.90;3.87;;;18.50;98.00;;;;;;5134075;27;21030;-64
2022/10/29 10:03:40;;;;;;;5.37;3.50;;;18.60;98.00;;;;;;5134155;27;20449;-64
2022/10/29 10:06:09;;;;;;;5.57;3.60;;;18.70;98.00;;;;;;5133116;27;20461;-64
2022/10/29 10:09:01;;;;;;;5.07;3.47;;;18.70;98.00;;;;;;5133936;27;20519;-64
2022/10/29 10:11:35;;;;;;;6.37;3.47;;;18.70;98.00;;;;;;5133944;27;20541;-63
2022/10/29 10:14:08;;;;;;;6.70;3.63;;;18.80;98.00;;;;;;5133757;27;20457;-63
2022/10/29 10:16:36;;;;;;;7.53;3.20;;;19.00;98.00;;;;;;5134024;27;20801;-62
2022/10/29 10:19:03;;;;;;;4.83;3.10;;;19.10;98.00;;;;;;5134253;27;20453;-63
2022/10/29 10:21:33;;;;;;;9.10;3.97;;;19.10;98.00;;;;;;5133735;27;20481;-63
2022/10/29 10:24:00;;;;;;;6.53;3.10;;;19.20;98.00;;;;;;5133981;27;20762;-63
2022/10/29 10:26:35;;;;;;;7.63;3.40;;;19.30;98.00;;;;;;5133786;27;20462;-62
2022/10/29 10:29:17;;;;;;;7.20;3.60;;;19.40;98.00;;;;;;5133765;27;20514;-64
2022/10/29 10:31:45;;;;;;;6.80;3.40;;;19.60;98.00;;;;;;5133505;27;20450;-64
2022/10/29 10:34:19;;;;;;;5.13;3.10;;;19.70;98.00;;;;;;5132332;27;20453;-63
2022/10/29 10:36:50;;;;;;;5.40;3.43;;;19.80;98.00;;;;;;5132432;27;20461;-64
2022/10/29 10:39:26;;;;;;;7.20;3.70;;;19.90;98.00;;;;;;5133400;27;20461;-64
2022/10/29 10:41:56;;;;;;;7.50;3.47;;;20.20;98.00;;;;;;5133369;27;21003;-64
2022/10/29 10:44:24;;;;;;;7.50;3.50;;;20.30;98.00;;;;;;5132364;27;20450;-65
2022/10/29 10:46:53;;;;;;;8.83;4.20;;;20.40;98.00;;;;;;5133256;27;20450;-64
2022/10/29 10:49:29;;;;;;;11.20;3.67;;;20.60;98.00;;;;;;5133111;27;20465;-66
2022/10/29 10:51:57;;;;;;;7.30;3.50;;;20.80;98.00;;;;;;5133152;27;20539;-64
2022/10/29 10:54:31;;;;;;;6.10;3.03;;;21.00;98.00;;;;;;5131700;27;20466;-65
2022/10/29 10:57:04;;;;;;;5.77;2.83;;;21.30;98.00;;;;;;5133056;27;20462;-64
2022/10/29 10:59:49;;;;;;;5.27;2.97;;;21.50;98.00;;;;;;5131858;27;20454;-65
2022/10/29 11:02:25;;;;;;;5.60;2.93;;;21.80;98.00;;;;;;5132886;27;20856;-64
2022/10/29 11:04:59;;;;;;;3.17;2.57;;;22.00;98.00;;;;;;5133102;27;20484;-65
2022/10/29 11:07:34;;;;;;;8.67;3.27;;;22.20;98.00;;;;;;5132840;27;20461;-64
2022/10/29 11:10:03;;;;;;;5.97;3.30;;;22.50;98.00;;;;;;5132547;27;20464;-65
2022/10/29 11:12:37;;;;;;;5.40;2.60;;;22.70;98.00;;;;;;5133280;27;20454;-66
2022/10/29 11:15:12;;;;;;;8.80;3.03;;;22.90;98.00;;;;;;5133069;27;20636;-65
2022/10/29 11:17:46;;;;;;;6.70;3.37;;;23.10;98.00;;;;;;5132804;27;20462;-65
2022/10/29 11:20:21;;;;;;;6.50;3.13;;;23.40;98.00;;;;;;5132754;27;20457;-65
2022/10/29 11:22:59;;;;;;;4.87;2.70;;;23.50;98.00;;;;;;5132453;27;20462;-65
2022/10/29 11:25:32;;;;;;;5.73;3.10;;;23.70;98.00;;;;;;5132516;27;20481;-65
2022/10/29 11:28:08;;;;;;;9.20;3.17;;;24.10;98.00;;;;;;5132640;27;20477;-65
2022/10/29 11:30:47;;;;;;;5.83;3.03;;;24.30;98.00;;;;;;5132566;27;20574;-65
2022/10/29 11:33:21;;;;;;;7.17;3.30;;;24.60;98.00;;;;;;5132715;27;20453;-65
2022/10/29 11:35:54;;;;;;;4.13;2.87;;;24.80;98.00;;;;;;5132360;27;20461;-65
2022/10/29 11:38:26;;;;;;;8.03;3.33;;;25.00;98.00;;;;;;5132464;27;20450;-64
2022/10/29 11:41:03;;;;;;;9.57;3.00;;;25.10;98.00;;;;;;5132321;27;20485;-65
2022/10/29 11:43:33;;;;;;;4.77;2.83;;;25.30;98.00;;;;;;5132329;27;20453;-65
2022/10/29 11:46:07;;;;;;;7.43;3.27;;;25.50;98.00;;;;;;5132281;27;20469;-65
2022/10/29 11:48:46;;;;;;;6.13;3.13;;;25.80;98.00;;;;;;5132445;27;20453;-65
2022/10/29 11:51:28;;;;;;;8.87;3.00;;;26.10;98.00;;;;;;5131990;27;20503;-65
2022/10/29 11:54:01;;;;;;;3.00;2.40;;;26.20;98.00;;;;;;5132045;27;20471;-65
2022/10/29 11:56:47;;;;;;;7.90;3.37;;;26.30;98.00;;;;;;5130555;27;20490;-64
2022/10/29 11:59:30;;;;;;;7.23;2.87;;;26.40;98.00;;;;;;5131116;28;20457;-65
2022/10/29 12:02:07;;;;;;;6.70;3.30;;;26.40;98.00;;;;;;5132272;28;20478;-65
2022/10/29 12:04:37;;;;;;;8.20;2.70;;;26.70;98.00;;;;;;5131144;28;20939;-66
2022/10/29 12:07:26;;;;;;;8.13;3.13;;;26.80;98.00;;;;;;5132470;28;20529;-65
2022/10/29 12:10:08;;;;;;;4.10;2.90;;;26.70;97.70;;;;;;5132291;28;20511;-65
2022/10/29 12:12:44;;;;;;;8.40;3.63;;;26.80;98.00;;;;;;5132280;28;20465;-66
2022/10/29 12:15:22;;;;;;;7.43;2.90;;;26.90;98.00;;;;;;5132176;27;20947;-66
2022/10/29 12:17:58;;;;;;;10.37;2.93;;;26.90;98.00;;;;;;5132189;28;20847;-65
2022/10/29 12:20:36;;;;;;;6.50;3.03;;;26.90;97.20;;;;;;5133502;27;20456;-66
2022/10/29 12:23:12;;;;;;;5.87;2.97;;;27.00;98.00;;;;;;5134904;27;20456;-65
2022/10/29 12:25:50;;;;;;;5.77;3.20;;;27.00;97.80;;;;;;5136072;27;20453;-66
2022/10/29 12:28:27;;;;;;;5.30;3.53;;;26.90;98.00;;;;;;5136577;27;20453;-66
2022/10/29 12:31:16;;;;;;;7.07;2.70;;;26.90;98.00;;;;;;5135283;27;20465;-65
2022/10/29 12:33:51;;;;;;;8.40;2.90;;;27.10;98.00;;;;;;5131954;27;20519;-66
2022/10/29 12:36:27;;;;;;;4.37;2.77;;;27.30;98.00;;;;;;5135234;27;20449;-65
2022/10/29 12:38:57;;;;;;;4.50;2.60;;;27.40;98.00;;;;;;5134621;27;20514;-66
2022/10/29 12:41:30;;;;;;;5.70;2.77;;;27.60;98.00;;;;;;5135782;27;20833;-65
2022/10/29 12:44:05;;;;;;;6.97;3.03;;;27.80;98.00;;;;;;5135691;27;20829;-65
2022/10/29 12:46:39;;;;;;;5.33;2.80;;;27.80;98.00;;;;;;5134784;27;20445;-65
2022/10/29 12:49:11;;;;;;;6.50;3.20;;;27.90;98.00;;;;;;5135646;27;20502;-65
2022/10/29 12:51:45;;;;;;;6.00;3.10;;;28.10;98.00;;;;;;5135505;27;20978;-65
2022/10/29 12:54:26;;;;;;;5.70;3.37;;;28.20;96.90;;;;;;5135527;27;20465;-65
2022/10/29 12:56:55;;;;;;;4.70;3.07;;;28.40;95.80;;;;;;5134562;27;20458;-65
2022/10/29 12:59:30;;;;;;;7.67;3.27;;;28.50;96.60;;;;;;5135595;27;20473;-66
2022/10/29 13:02:25;;;;;;;10.17;3.00;;;28.50;97.30;;;;;;5135549;27;20557;-65
2022/10/29 13:05:15;;;;;;;3.23;2.47;;;28.20;97.60;;;;;;5135401;27;20541;-66